Bovey, Minnesota
Current Conditions -  °F | °C
As of 11:35 PM on Wednesday 22 Oct 2014 (Local Time) from KGPZ Reporting Station
Broken Clouds Broken Clouds  
Wind Chill: 52°   Ceiling: 9500
Heat Index: 52°   Visibility: 10mi
Dew Point: 39°   Wind: 16mph
Humidity: 62%   Direction: 160°SSE
Pressure: 29.95"   Gusts: NA
Location:  47.3°N, 93.42°W
Report Text: KGPZ 230435Z AUTO 16014KT 10SM FEW065 BKN095 11/04 A2995 RMK AO1
Loading
Personal Weather Stations






























Interactive Weather Map
Tropical Storm Tracking
New forecast layout! Learn more

10-Day Weather Forecast

Advertisements
Track Severe Weather on mobile